Hlavní strana
METAR-TAF:

METAR-TAF

Letiště :

Čita, Rusko

zeměpisná šířka: 52-05N, zeměpisná délka: 113-29E, výška: 685 m

Aktuální stav počasí

Zpráva byla vytvořena před 19 minutami, v 07:00 UTC
Východní vítr 4 kt
Teplota -26°C
Vlhkost vzduchu 57%
Tlak 1023 hPa
Viditelnost 10 km a více

METAR: UIAA 200700Z 08002MPS 9999 NSC M26/M32 Q1023 R29/810160 NOSIG RMK QFE708/0944

Čas: 16:19 (07:19 UTC)

Předpověď počasí

Zpráva byla vytvořena před 2 hodinami a 19 minutami, v 05:00 UTC
Předpověď platná od 20 v 06 UTC do 21 v 06 UTC
Západoseverozápadní vítr 6 kt
Viditelnost 10 km a více

TAF: UIAA 200500Z 2006/2106 30003MPS 9999 NSC

Stav a předpovědi počasí z více než 4 000 letišť (zprávy METAR a TAF).

Červené a žluté tečky na mapě představují dostupné meteorologické stanice.

Když kurzor umístíte na tečku, zobrazí se název stanice.

Pak kliknutím zobrazíte stav a předpověď počasí.

Chcete-li změnit mapu, kliknutím na zelené tlačítko se znaménkem +mapu přiblížíte, kliknutím na zelené tlačítko se znaménkem – mapu oddálíte a kliknutím na zelené šipky přejdete na sousední mapy.


METAR-TAF: